Time;durP1;ratioP1;P1;durP2;ratioP2;P2;SDS_P1;SDS_P2;PMS_P1;PMS_P2;Temp;Humidity;BMP_temperature;BMP_pressure;BME280_temperature;BME280_humidity;BME280_pressure;Samples;Min_cycle;Max_cycle;Signal;HPM_P1;HPM_P2
2021/07/12 00:01:30;;;;;;;11.57;8.68;;;;;;;18.83;51.52;101443.53;5004871;28;20558;-69
2021/07/12 00:03:55;;;;;;;9.02;7.47;;;;;;;18.82;51.52;101451.56;4988920;28;20042;-69
2021/07/12 00:06:21;;;;;;;8.90;6.95;;;;;;;18.89;51.66;101448.44;5004735;28;20030;-69
2021/07/12 00:08:46;;;;;;;12.07;8.25;;;;;;;18.87;51.65;101450.34;5005537;28;20152;-69
2021/07/12 00:11:12;;;;;;;11.73;8.75;;;;;;;18.80;51.53;101446.38;4987798;28;20029;-69
2021/07/12 00:13:38;;;;;;;14.05;8.02;;;;;;;18.82;51.64;101457.72;4990522;28;20443;-69
2021/07/12 00:16:04;;;;;;;15.00;9.60;;;;;;;18.77;52.03;101449.25;4990221;28;20076;-69
2021/07/12 00:18:30;;;;;;;10.63;8.60;;;;;;;18.69;51.72;101451.53;4988758;28;20057;-68
2021/07/12 00:20:56;;;;;;;12.00;8.02;;;;;;;18.76;52.00;101444.88;5003531;28;20037;-69
2021/07/12 00:23:21;;;;;;;9.90;6.82;;;;;;;18.77;51.61;101440.44;4988565;28;20030;-69
2021/07/12 00:25:47;;;;;;;9.45;7.65;;;;;;;18.82;51.72;101435.69;5004972;28;20041;-69
2021/07/12 00:28:13;;;;;;;8.25;7.18;;;;;;;18.92;51.45;101422.72;4986839;28;20031;-69
2021/07/12 00:30:38;;;;;;;9.60;8.27;;;;;;;18.93;51.11;101422.63;4988989;28;20033;-68
2021/07/12 00:33:04;;;;;;;10.48;7.95;;;;;;;18.89;51.77;101421.97;4970430;28;20041;-68
2021/07/12 00:35:29;;;;;;;10.68;8.30;;;;;;;18.80;51.66;101433.13;5004295;28;20114;-68
2021/07/12 00:37:55;;;;;;;13.90;9.25;;;;;;;18.67;52.10;101422.50;4990276;28;20450;-69
2021/07/12 00:40:23;;;;;;;11.80;8.90;;;;;;;18.66;52.31;101425.25;4971883;28;20025;-69
2021/07/12 00:42:50;;;;;;;15.57;9.57;;;;;;;18.63;52.19;101421.03;4981541;28;20081;-69
2021/07/12 00:45:19;;;;;;;11.90;8.85;;;;;;;18.63;51.88;101425.44;4987948;28;20116;-69
2021/07/12 00:47:47;;;;;;;14.07;9.57;;;;;;;18.59;52.35;101421.34;4985283;28;20487;-69
2021/07/12 00:50:13;;;;;;;13.32;8.88;;;;;;;18.54;52.45;101418.13;4987941;28;20120;-69
2021/07/12 00:52:39;;;;;;;12.15;8.70;;;;;;;18.59;52.46;101416.88;4989475;28;20048;-68
2021/07/12 00:55:15;;;;;;;14.10;9.25;;;;;;;18.53;52.36;101409.34;4987917;28;20030;-69
2021/07/12 00:57:42;;;;;;;10.88;8.55;;;;;;;18.43;52.65;101414.38;4965930;28;20057;-69
2021/07/12 01:00:10;;;;;;;15.30;8.68;;;;;;;18.44;52.72;101420.53;4988086;28;20038;-68
2021/07/12 01:02:36;;;;;;;16.75;8.45;;;;;;;18.49;52.52;101413.13;4971108;28;20026;-69
2021/07/12 01:05:07;;;;;;;13.30;9.23;;;;;;;18.39;52.55;101406.75;4987213;28;20052;-69
2021/07/12 01:07:34;;;;;;;10.00;8.68;;;;;;;18.41;52.53;101405.69;4971577;28;20025;-69
2021/07/12 01:10:00;;;;;;;11.57;9.57;;;;;;;18.43;52.56;101403.81;4967590;28;20037;-69
2021/07/12 01:12:39;;;;;;;13.38;9.57;;;;;;;18.39;52.83;101398.81;4964888;28;20830;-69
2021/07/12 01:15:11;;;;;;;17.17;10.30;;;;;;;18.35;52.92;101395.50;5002002;28;20650;-68
2021/07/12 01:17:59;;;;;;;;;;;;;;;18.35;52.98;101395.50;5004520;28;20109;-69
2021/07/12 01:20:58;;;;;;;16.05;10.13;;;;;;;18.21;53.36;101388.47;4985213;28;20032;-69
2021/07/12 01:23:57;;;;;;;13.43;10.68;;;;;;;18.27;53.18;101393.38;5003775;28;20369;-69
2021/07/12 01:26:55;;;;;;;15.43;10.65;;;;;;;18.33;53.21;101381.53;5003528;28;20703;-68
2021/07/12 01:29:27;;;;;;;14.30;10.23;;;;;;;18.33;53.19;101376.22;4987391;28;20057;-68
2021/07/12 01:32:31;;;;;;;12.43;9.55;;;;;;;18.35;53.15;101379.63;4985990;28;20037;-69
2021/07/12 01:35:23;;;;;;;19.10;10.93;;;;;;;18.37;53.23;101383.03;5004724;28;20045;-70
2021/07/12 01:38:05;;;;;;;16.92;10.82;;;;;;;18.38;53.41;101391.81;4987081;28;20059;-69
2021/07/12 01:40:41;;;;;;;13.15;9.88;;;;;;;18.39;53.29;101381.13;4986967;28;20029;-69
2021/07/12 01:43:27;;;;;;;14.43;9.77;;;;;;;18.40;53.43;101382.81;5003982;28;20480;-68
2021/07/12 01:46:08;;;;;;;14.75;10.40;;;;;;;18.48;53.63;101385.81;4984942;28;20023;-69
2021/07/12 01:48:44;;;;;;;12.20;10.47;;;;;;;18.47;53.49;101377.97;4986376;28;20057;-69
2021/07/12 01:51:15;;;;;;;14.30;10.52;;;;;;;18.48;53.78;101391.09;4972421;28;20030;-69
2021/07/12 01:54:01;;;;;;;13.77;9.35;;;;;;;18.51;53.30;101390.06;4986340;28;20045;-69
2021/07/12 01:56:42;;;;;;;15.18;10.75;;;;;;;18.46;53.51;101390.34;5004713;28;20042;-68
2021/07/12 01:59:23;;;;;;;15.25;10.32;;;;;;;18.41;53.55;101389.81;4968628;28;20034;-68
2021/07/12 02:01:51;;;;;;;14.48;10.52;;;;;;;18.35;53.74;101387.56;4986888;28;20113;-69
2021/07/12 02:04:19;;;;;;;19.25;11.27;;;;;;;18.35;53.68;101379.63;4987170;28;20036;-69
2021/07/12 02:06:47;;;;;;;14.52;11.18;;;;;;;18.38;53.56;101389.16;4983727;28;20117;-69
2021/07/12 02:09:19;;;;;;;15.05;10.68;;;;;;;18.37;53.64;101380.38;4978326;28;20066;-69
2021/07/12 02:11:52;;;;;;;13.75;10.40;;;;;;;18.36;53.95;101378.66;5004463;28;20041;-69
2021/07/12 02:14:21;;;;;;;15.00;10.68;;;;;;;18.34;53.83;101375.28;4985542;28;20034;-68
2021/07/12 02:16:50;;;;;;;18.60;11.43;;;;;;;18.32;53.92;101374.53;5002553;28;20099;-69
2021/07/12 02:19:19;;;;;;;13.15;10.60;;;;;;;18.30;54.16;101376.44;5003007;28;20026;-69
2021/07/12 02:22:05;;;;;;;15.35;12.00;;;;;;;18.31;54.04;101371.97;5002726;28;20046;-69
2021/07/12 02:24:46;;;;;;;16.30;11.93;;;;;;;18.31;54.08;101371.97;5002811;28;20037;-69
2021/07/12 02:27:18;;;;;;;17.58;10.30;;;;;;;18.35;53.83;101371.69;5003066;28;20387;-69
2021/07/12 02:29:45;;;;;;;15.25;12.38;;;;;;;18.33;53.76;101370.94;4979767;28;20029;-69
2021/07/12 02:32:11;;;;;;;12.70;10.38;;;;;;;18.31;53.86;101372.81;5002365;28;20129;-68
2021/07/12 02:34:40;;;;;;;14.23;9.88;;;;;;;18.31;54.03;101372.81;4990960;28;20607;-68
2021/07/12 02:37:07;;;;;;;16.08;10.30;;;;;;;18.30;54.00;101362.38;4978987;28;20076;-68
2021/07/12 02:39:36;;;;;;;11.07;8.77;;;;;;;18.33;54.15;101365.63;5002386;28;20049;-69
2021/07/12 02:42:09;;;;;;;18.30;11.45;;;;;;;18.32;54.19;101357.78;4981672;28;20046;-69
2021/07/12 02:44:38;;;;;;;15.30;11.07;;;;;;;18.30;54.29;101367.66;4990491;28;20041;-68
2021/07/12 02:47:07;;;;;;;20.48;11.90;;;;;;;18.22;54.48;101363.69;4985707;28;20083;-68
2021/07/12 02:49:35;;;;;;;17.95;12.43;;;;;;;18.26;54.32;101367.84;4986505;28;20037;-69
2021/07/12 02:52:09;;;;;;;18.40;12.48;;;;;;;18.38;53.96;101354.75;4984092;28;20038;-68
2021/07/12 02:54:43;;;;;;;14.25;10.52;;;;;;;18.34;53.94;101354.13;4966295;28;20137;-69
2021/07/12 02:57:11;;;;;;;12.68;11.20;;;;;;;18.19;53.94;101353.31;5000935;28;20495;-69
2021/07/12 02:59:37;;;;;;;15.52;11.85;;;;;;;18.20;54.33;101355.00;4985606;28;20108;-69
2021/07/12 03:02:04;;;;;;;16.75;11.52;;;;;;;18.27;54.27;101352.81;4986520;28;20038;-69
2021/07/12 03:04:29;;;;;;;14.15;10.70;;;;;;;18.28;54.13;101341.28;5003466;28;20080;-69
2021/07/12 03:06:58;;;;;;;13.88;11.00;;;;;;;18.30;54.17;101339.41;4985064;28;20129;-70
2021/07/12 03:09:35;;;;;;;14.65;10.88;;;;;;;18.25;53.97;101341.47;4985228;28;20037;-69
2021/07/12 03:12:15;;;;;;;19.65;12.55;;;;;;;18.23;54.24;101338.09;5003348;28;20045;-68
2021/07/12 03:14:49;;;;;;;13.98;11.15;;;;;;;18.24;54.40;101329.19;4984063;28;20038;-68
2021/07/12 03:17:18;;;;;;;15.70;12.15;;;;;;;18.18;54.66;101329.56;4984785;28;20063;-69
2021/07/12 03:19:46;;;;;;;13.18;10.63;;;;;;;18.20;54.79;101328.53;5002675;28;20044;-69
2021/07/12 03:22:14;;;;;;;13.52;10.73;;;;;;;18.20;54.69;101333.84;4985016;28;20116;-69
2021/07/12 03:24:54;;;;;;;14.65;11.13;;;;;;;18.15;54.67;101324.50;5001640;28;20092;-69
2021/07/12 03:27:22;;;;;;;15.13;12.00;;;;;;;18.12;54.74;101324.66;4968942;28;20042;-68
2021/07/12 03:29:50;;;;;;;14.57;10.32;;;;;;;18.24;54.49;101319.47;4986325;28;20038;-69
2021/07/12 03:32:22;;;;;;;9.98;8.30;;;;;;;18.29;54.48;101316.50;5001221;28;20038;-69
2021/07/12 03:34:53;;;;;;;15.27;11.10;;;;;;;18.27;54.37;101319.28;4969772;28;20120;-68
2021/07/12 03:37:21;;;;;;;15.15;9.68;;;;;;;18.19;54.46;101318.09;4983229;28;20038;-70
2021/07/12 03:39:49;;;;;;;17.38;11.77;;;;;;;18.27;54.09;101318.41;4990324;28;20069;-69
2021/07/12 03:42:17;;;;;;;13.82;10.20;;;;;;;18.21;54.17;101329.41;4988713;28;20111;-70
2021/07/12 03:44:44;;;;;;;14.82;10.13;;;;;;;18.26;54.25;101332.59;4987867;28;20034;-68
2021/07/12 03:47:24;;;;;;;14.63;9.82;;;;;;;18.22;54.28;101333.75;5004551;28;20036;-69
2021/07/12 03:49:50;;;;;;;13.60;10.65;;;;;;;18.18;54.20;101334.84;4989434;28;20037;-69
2021/07/12 03:52:17;;;;;;;10.65;8.40;;;;;;;18.19;54.41;101336.59;4988640;28;20034;-69
2021/07/12 03:54:42;;;;;;;11.82;9.25;;;;;;;18.25;54.38;101331.75;4983015;28;20074;-69
2021/07/12 03:57:08;;;;;;;14.18;8.00;;;;;;;18.27;54.56;101334.28;4972018;28;20257;-69
2021/07/12 03:59:33;;;;;;;15.02;10.02;;;;;;;18.27;54.33;101334.28;4989624;28;20053;-69
2021/07/12 04:01:59;;;;;;;17.30;11.00;;;;;;;18.37;53.98;101332.75;4988040;28;20388;-69
2021/07/12 04:04:24;;;;;;;12.13;9.63;;;;;;;18.41;53.99;101341.34;5004811;28;20045;-68
2021/07/12 04:06:50;;;;;;;16.48;10.85;;;;;;;18.42;54.02;101332.44;4993057;28;20042;-69
2021/07/12 04:09:15;;;;;;;20.33;12.27;;;;;;;18.29;53.83;101332.38;4988100;28;20038;-68
2021/07/12 04:11:41;;;;;;;15.73;11.73;;;;;;;18.24;54.45;101337.13;4989206;28;20049;-69
2021/07/12 04:14:07;;;;;;;16.17;12.50;;;;;;;18.28;54.05;101325.41;4970895;28;20038;-69
2021/07/12 04:16:33;;;;;;;17.10;12.88;;;;;;;18.17;54.14;101334.00;5005522;28;20723;-69
2021/07/12 04:18:59;;;;;;;16.10;11.73;;;;;;;18.24;54.24;101323.91;5005352;28;20034;-69
2021/07/12 04:21:24;;;;;;;18.15;10.88;;;;;;;18.36;54.27;101324.91;4989680;28;20038;-68
2021/07/12 04:23:50;;;;;;;20.48;11.93;;;;;;;18.42;53.89;101325.34;4971275;28;20042;-69
2021/07/12 04:26:15;;;;;;;20.55;13.35;;;;;;;18.44;53.88;101322.59;5006108;28;20038;-70
2021/07/12 04:28:41;;;;;;;15.85;11.63;;;;;;;18.56;53.75;101329.72;4988721;28;20038;-69
2021/07/12 04:31:06;;;;;;;15.60;12.70;;;;;;;18.53;53.73;101318.50;4987291;28;20095;-69
2021/07/12 04:33:32;;;;;;;16.77;11.85;;;;;;;18.61;53.70;101326.78;5003584;28;20033;-69
2021/07/12 04:35:57;;;;;;;18.45;12.52;;;;;;;18.78;53.34;101315.88;4987899;28;20065;-69
2021/07/12 04:38:23;;;;;;;20.63;13.23;;;;;;;18.78;53.69;101322.97;5004589;28;20029;-69
2021/07/12 04:40:48;;;;;;;13.98;11.98;;;;;;;18.75;53.02;101318.75;4987523;28;20038;-69
2021/07/12 04:43:14;;;;;;;16.23;12.20;;;;;;;18.69;52.59;101311.22;5005839;28;20037;-69
2021/07/12 04:45:40;;;;;;;18.92;13.38;;;;;;;18.59;52.66;101318.94;4988062;28;20398;-69
2021/07/12 04:48:06;;;;;;;15.52;12.20;;;;;;;18.60;53.17;101320.63;5005999;28;20050;-69
2021/07/12 04:50:33;;;;;;;16.73;13.00;;;;;;;18.75;53.11;101308.16;4987415;28;20037;-69
2021/07/12 04:52:58;;;;;;;19.38;12.55;;;;;;;18.80;53.03;101306.03;5005517;28;20083;-69
2021/07/12 04:55:24;;;;;;;16.50;13.18;;;;;;;18.82;52.84;101298.84;4987378;28;20030;-69
2021/07/12 04:57:49;;;;;;;18.40;13.48;;;;;;;18.87;52.60;101307.31;5005006;28;20576;-69
2021/07/12 05:00:16;;;;;;;17.85;12.52;;;;;;;18.88;52.44;101302.91;5006338;28;20033;-69
2021/07/12 05:02:41;;;;;;;17.88;12.70;;;;;;;18.96;52.45;101307.66;5005573;28;20029;-69
2021/07/12 05:05:08;;;;;;;16.80;12.50;;;;;;;18.93;52.15;101299.94;5003841;28;20029;-70
2021/07/12 05:07:34;;;;;;;17.70;13.63;;;;;;;18.98;52.37;101297.81;5004015;28;20446;-68
2021/07/12 05:10:00;;;;;;;18.10;13.40;;;;;;;19.22;52.21;101293.44;4987579;28;20037;-68
2021/07/12 05:12:25;;;;;;;18.55;12.60;;;;;;;19.34;51.56;101293.53;5004630;28;20612;-69
2021/07/12 05:14:51;;;;;;;16.80;12.55;;;;;;;19.51;51.41;101301.16;4992675;28;20038;-69
2021/07/12 05:17:16;;;;;;;16.15;12.43;;;;;;;19.88;51.06;101299.38;5005236;28;20030;-69
2021/07/12 05:19:42;;;;;;;16.40;11.52;;;;;;;20.18;49.43;101295.41;4988373;28;20107;-69
2021/07/12 05:22:08;;;;;;;15.82;10.93;;;;;;;20.38;49.96;101296.59;4986858;28;20029;-69
2021/07/12 05:24:33;;;;;;;16.88;12.07;;;;;;;20.61;48.23;101296.66;5003901;28;20055;-69
2021/07/12 05:26:59;;;;;;;13.63;10.60;;;;;;;20.64;47.52;101291.97;4987781;28;20058;-70
2021/07/12 05:29:25;;;;;;;15.50;11.15;;;;;;;20.60;47.64;101284.38;5001831;28;20030;-69
2021/07/12 05:31:50;;;;;;;20.90;13.55;;;;;;;20.94;47.60;101277.31;5004866;28;20095;-69
2021/07/12 05:34:16;;;;;;;14.15;11.93;;;;;;;20.94;47.28;101277.31;4991080;28;20051;-70
2021/07/12 05:36:42;;;;;;;14.07;12.48;;;;;;;21.55;46.15;101268.97;5005569;28;20061;-70
2021/07/12 05:39:08;;;;;;;13.82;10.55;;;;;;;22.25;44.31;101264.16;4986833;28;20121;-69
2021/07/12 05:41:33;;;;;;;15.43;10.73;;;;;;;23.53;41.64;101262.03;5005583;28;20403;-69
2021/07/12 05:43:59;;;;;;;10.98;9.52;;;;;;;24.70;39.51;101256.69;5003438;28;20034;-68
2021/07/12 05:46:25;;;;;;;9.98;8.77;;;;;;;25.44;38.45;101256.69;4991974;28;20675;-69
2021/07/12 05:48:50;;;;;;;13.77;9.77;;;;;;;25.44;38.47;101248.66;4975330;28;20034;-69
2021/07/12 05:51:16;;;;;;;10.60;9.50;;;;;;;25.13;38.04;101247.25;5005133;28;20495;-69
2021/07/12 05:53:42;;;;;;;14.00;10.13;;;;;;;23.91;40.04;101252.44;5014174;28;20105;-70
2021/07/12 05:56:07;;;;;;;14.27;10.50;;;;;;;22.91;42.58;101259.41;4983126;28;20020;-68
2021/07/12 05:58:33;;;;;;;12.88;9.60;;;;;;;22.11;44.39;101263.50;4986841;28;20036;-69
2021/07/12 06:00:59;;;;;;;12.93;11.02;;;;;;;21.86;45.84;101264.66;5002139;28;20046;-69
2021/07/12 06:03:25;;;;;;;11.40;10.27;;;;;;;21.62;46.32;101267.50;4973459;28;20109;-69
2021/07/12 06:05:50;;;;;;;12.38;10.70;;;;;;;21.49;46.32;101261.47;4969380;28;20041;-69
2021/07/12 06:08:16;;;;;;;19.17;14.52;;;;;;;21.51;47.10;101264.88;4970737;28;20038;-70
2021/07/12 06:10:41;;;;;;;14.95;11.23;;;;;;;21.81;46.57;101266.84;4982320;28;20033;-68
2021/07/12 06:13:07;;;;;;;13.45;11.43;;;;;;;21.98;45.95;101268.97;4984751;28;20034;-69
2021/07/12 06:15:32;;;;;;;11.88;10.15;;;;;;;22.45;45.17;101265.16;5000469;28;20057;-69
2021/07/12 06:17:58;;;;;;;16.95;11.63;;;;;;;22.47;45.06;101268.53;5002491;28;20120;-70
2021/07/12 06:20:24;;;;;;;10.50;9.20;;;;;;;22.53;44.64;101268.84;4986165;28;20026;-69
2021/07/12 06:22:50;;;;;;;12.63;10.45;;;;;;;22.70;44.04;101263.94;4986370;28;20041;-69
2021/07/12 06:25:18;;;;;;;12.90;9.90;;;;;;;22.83;44.03;101263.72;4986422;28;20041;-68
2021/07/12 06:27:44;;;;;;;14.38;11.13;;;;;;;23.57;42.15;101268.81;4986304;28;20038;-69
2021/07/12 06:30:10;;;;;;;13.43;10.10;;;;;;;23.65;42.24;101263.59;5004179;28;20395;-69
2021/07/12 06:32:36;;;;;;;13.15;11.35;;;;;;;24.19;42.62;101259.59;4985880;28;20065;-69
2021/07/12 06:35:03;;;;;;;15.50;11.20;;;;;;;24.51;40.06;101263.78;5001913;28;20061;-69
2021/07/12 06:37:29;;;;;;;13.10;10.23;;;;;;;24.49;40.12;101259.59;5000460;28;20038;-69
2021/07/12 06:39:54;;;;;;;11.40;10.07;;;;;;;24.45;40.60;101253.66;4966681;28;20774;-68
2021/07/12 06:42:22;;;;;;;11.23;9.95;;;;;;;24.27;40.50;101261.53;4985859;28;20026;-68
2021/07/12 06:44:47;;;;;;;12.45;9.15;;;;;;;23.61;41.61;101248.84;5001166;28;20041;-69
2021/07/12 06:47:14;;;;;;;11.98;10.20;;;;;;;23.62;41.73;101247.88;4990471;28;20068;-69
2021/07/12 06:49:43;;;;;;;12.02;10.20;;;;;;;23.34;42.01;101250.38;4971081;28;20040;-68
2021/07/12 06:52:09;;;;;;;12.40;9.65;;;;;;;22.96;43.75;101254.53;4999697;28;20042;-69
2021/07/12 06:54:35;;;;;;;14.20;10.32;;;;;;;23.06;43.94;101251.91;5003002;28;20037;-69
2021/07/12 06:57:00;;;;;;;12.50;10.30;;;;;;;23.38;43.03;101251.75;4983944;28;20041;-68
2021/07/12 06:59:30;;;;;;;13.48;10.70;;;;;;;24.16;40.37;101256.34;4969720;28;20037;-69
2021/07/12 07:01:55;;;;;;;9.80;8.15;;;;;;;24.50;40.26;101258.59;5001700;28;20656;-69
2021/07/12 07:04:21;;;;;;;11.85;9.98;;;;;;;25.09;38.76;101256.59;4983885;28;20129;-69
2021/07/12 07:06:49;;;;;;;10.90;9.43;;;;;;;25.80;38.31;101263.91;5006993;28;20089;-71
2021/07/12 07:09:15;;;;;;;11.75;10.20;;;;;;;26.24;37.13;101256.81;4999045;28;20905;-68
2021/07/12 07:11:41;;;;;;;13.02;9.60;;;;;;;26.81;36.43;101260.91;4986486;28;20042;-69
2021/07/12 07:14:06;;;;;;;11.05;9.48;;;;;;;28.07;34.16;101261.78;5001023;28;20075;-69
2021/07/12 07:16:32;;;;;;;13.35;10.02;;;;;;;28.34;32.61;101254.41;5003220;28;20099;-68
2021/07/12 07:18:57;;;;;;;8.95;8.05;;;;;;;28.96;31.95;101259.97;4987614;28;20136;-69
2021/07/12 07:21:23;;;;;;;11.52;9.18;;;;;;;28.10;32.44;101263.31;5005496;28;20105;-69
2021/07/12 07:23:48;;;;;;;11.20;9.40;;;;;;;29.45;31.44;101263.47;5006690;28;20025;-70
2021/07/12 07:26:14;;;;;;;7.53;6.53;;;;;;;31.43;29.20;101247.91;5023934;22;20023;-69
2021/07/12 07:28:40;;;;;;;9.40;8.30;;;;;;;32.64;26.50;101250.63;5041852;28;20057;-69
2021/07/12 07:31:13;;;;;;;10.57;7.60;;;;;;;33.51;25.38;101249.13;5022796;28;20037;-69
2021/07/12 07:33:38;;;;;;;9.00;6.78;;;;;;;34.04;24.50;101246.50;5039385;28;20045;-71
2021/07/12 07:36:06;;;;;;;9.20;6.95;;;;;;;34.14;23.97;101250.69;5039216;28;20033;-70
2021/07/12 07:38:32;;;;;;;9.23;7.80;;;;;;;33.68;24.99;101252.28;5035295;28;20056;-71
2021/07/12 07:40:58;;;;;;;9.18;8.27;;;;;;;33.39;23.91;101261.59;5035000;28;20018;-70
2021/07/12 07:43:28;;;;;;;5.72;5.20;;;;;;;32.36;25.19;101259.56;5034971;28;23202;-70
2021/07/12 07:45:54;;;;;;;10.90;8.85;;;;;;;31.13;25.96;101256.06;5004989;28;20128;-69
2021/07/12 07:48:22;;;;;;;7.45;5.97;;;;;;;31.44;26.30;101262.25;5033173;28;20112;-70
2021/07/12 07:50:48;;;;;;;5.55;5.03;;;;;;;32.57;25.46;101271.41;5034677;28;20037;-69
2021/07/12 07:53:14;;;;;;;7.07;5.90;;;;;;;33.08;24.72;101273.78;5017429;28;20029;-69
2021/07/12 07:55:40;;;;;;;6.43;5.93;;;;;;;33.01;23.63;101260.22;5033772;28;20537;-72
2021/07/12 07:58:05;;;;;;;7.03;6.43;;;;;;;32.26;24.67;101272.63;5016995;28;20062;-70
2021/07/12 08:00:34;;;;;;;7.88;6.95;;;;;;;31.42;26.46;101263.25;5019945;28;20056;-71
2021/07/12 08:03:04;;;;;;;11.10;8.75;;;;;;;30.46;27.05;101262.38;5033674;28;20234;-70
2021/07/12 08:05:34;;;;;;;9.30;8.35;;;;;;;28.85;29.90;101267.59;5037097;28;20029;-70
2021/07/12 08:08:04;;;;;;;8.30;7.50;;;;;;;27.60;32.35;101265.06;5014786;28;20029;-69
2021/07/12 08:10:30;;;;;;;7.53;6.80;;;;;;;27.05;32.46;101269.06;5035126;28;20048;-70
2021/07/12 08:12:59;;;;;;;5.53;5.13;;;;;;;28.23;30.88;101263.66;5033704;28;20040;-70
2021/07/12 08:15:24;;;;;;;6.60;5.53;;;;;;;30.28;27.55;101259.19;5016990;28;20875;-70
2021/07/12 08:17:54;;;;;;;6.65;6.03;;;;;;;30.74;28.23;101268.00;5034102;28;20426;-68
2021/07/12 08:20:21;;;;;;;6.00;5.40;;;;;;;31.23;27.57;101272.00;5033992;28;20037;-70
2021/07/12 08:22:59;;;;;;;6.75;6.15;;;;;;;30.89;27.13;101267.16;5030292;28;20529;-70
2021/07/12 08:25:27;;;;;;;5.82;5.32;;;;;;;31.02;27.47;101266.53;5034016;28;20033;-71
2021/07/12 08:28:07;;;;;;;;;;;;;;;;;;;;;
2021/07/12 08:30:35;;;;;;;10.03;7.20;;;;;;;30.69;27.11;101265.03;5031325;28;20116;-70
2021/07/12 08:33:03;;;;;;;5.82;5.20;;;;;;;31.05;27.06;101250.81;5032312;28;20029;-70
2021/07/12 08:35:33;;;;;;;6.60;6.00;;;;;;;31.26;27.93;101251.88;5016485;28;20038;-69
2021/07/12 08:38:10;;;;;;;6.17;5.67;;;;;;;32.16;25.59;101254.06;4999908;28;20127;-70
2021/07/12 08:40:35;;;;;;;12.05;8.05;;;;;;;32.03;25.08;101248.53;5032784;28;20437;-70
2021/07/12 08:43:08;;;;;;;6.28;5.72;;;;;;;32.19;24.85;101242.00;5022993;28;20045;-71
2021/07/12 08:45:44;;;;;;;6.72;6.13;;;;;;;33.31;24.19;101256.41;5032706;28;20048;-69
2021/07/12 08:48:18;;;;;;;6.53;5.93;;;;;;;34.01;22.96;101251.50;5033972;28;20057;-71
2021/07/12 08:50:49;;;;;;;7.05;6.40;;;;;;;32.59;24.43;101250.41;5032073;28;20033;-69
2021/07/12 08:53:27;;;;;;;7.25;6.65;;;;;;;32.41;25.36;101240.94;5023489;28;20025;-71
2021/07/12 08:55:53;;;;;;;7.88;7.18;;;;;;;30.62;27.41;101239.81;5015778;28;20163;-70
2021/07/12 08:58:34;;;;;;;;;;;;;;;;;;;;;
2021/07/12 09:01:10;;;;;;;7.32;6.57;;;;;;;32.15;26.13;101238.84;5033886;28;20116;-70
2021/07/12 09:03:37;;;;;;;6.90;6.32;;;;;;;32.83;24.92;101227.44;5006511;28;20025;-70
2021/07/12 09:06:15;;;;;;;11.90;6.38;;;;;;;33.72;22.83;101228.34;5032463;28;20132;-69
2021/07/12 09:08:51;;;;;;;5.28;4.88;;;;;;;34.95;21.93;101223.13;5030490;28;20398;-70
2021/07/12 09:11:30;;;;;;;3.70;3.50;;;;;;;35.75;20.63;101230.00;5018600;28;20033;-70
2021/07/12 09:14:15;;;;;;;4.57;4.25;;;;;;;34.58;21.84;101219.31;5030384;28;20487;-71
2021/07/12 09:16:47;;;;;;;3.47;3.17;;;;;;;34.10;22.37;101233.13;5032326;28;20379;-70
2021/07/12 09:19:36;;;;;;;3.45;3.25;;;;;;;34.86;21.63;101230.66;5032472;28;20047;-70
2021/07/12 09:22:07;;;;;;;4.78;4.38;;;;;;;34.03;22.07;101233.13;5034215;28;20036;-70
2021/07/12 09:24:45;;;;;;;3.38;3.08;;;;;;;32.90;24.05;101233.75;5017359;28;20501;-70
2021/07/12 09:27:19;;;;;;;4.78;3.10;;;;;;;32.32;24.44;101234.00;5031216;28;20045;-69
2021/07/12 09:30:08;;;;;;;4.72;4.10;;;;;;;30.88;25.98;101222.31;5032201;28;20033;-70
2021/07/12 09:32:43;;;;;;;3.70;3.40;;;;;;;32.00;24.72;101228.13;5019828;28;20394;-69
2021/07/12 09:35:33;;;;;;;4.22;2.17;;;;;;;31.82;23.76;101225.03;5032317;28;20040;-70
2021/07/12 09:38:09;;;;;;;3.50;3.10;;;;;;;31.49;23.73;101224.72;5014423;28;20143;-70
2021/07/12 09:40:37;;;;;;;3.08;2.80;;;;;;;31.24;25.02;101222.34;5030186;28;20055;-69
2021/07/12 09:43:12;;;;;;;4.55;3.53;;;;;;;30.87;25.55;101217.94;5030671;28;20039;-70
2021/07/12 09:45:42;;;;;;;3.05;2.83;;;;;;;30.86;25.80;101211.69;5032961;28;20163;-70
2021/07/12 09:48:20;;;;;;;4.57;3.60;;;;;;;30.44;26.45;101213.19;5018540;28;20375;-69
2021/07/12 09:50:48;;;;;;;4.32;3.60;;;;;;;31.04;28.02;101205.94;5012669;28;20044;-70
2021/07/12 09:53:30;;;;;;;4.63;3.42;;;;;;;31.37;24.94;101205.47;5030580;28;20170;-70
2021/07/12 09:55:56;;;;;;;4.82;4.40;;;;;;;31.16;25.46;101199.03;5020637;28;20041;-69
2021/07/12 09:58:24;;;;;;;4.75;4.15;;;;;;;31.77;23.77;101205.88;5018243;28;20037;-70
2021/07/12 10:00:49;;;;;;;3.78;3.10;;;;;;;31.27;23.81;101204.94;5031701;28;20033;-70
2021/07/12 10:03:25;;;;;;;2.83;2.63;;;;;;;30.63;24.85;101203.72;5031526;28;20090;-70
2021/07/12 10:05:52;;;;;;;3.80;3.08;;;;;;;30.44;25.47;101194.31;5029126;28;20037;-72
2021/07/12 10:08:20;;;;;;;5.38;4.43;;;;;;;29.54;25.86;101193.22;5030791;28;20123;-71
2021/07/12 10:10:51;;;;;;;4.07;3.13;;;;;;;29.69;26.26;101184.41;5013563;28;20033;-71
2021/07/12 10:13:25;;;;;;;3.55;3.25;;;;;;;29.73;26.21;101167.72;5031121;28;20497;-70
2021/07/12 10:15:56;;;;;;;2.60;2.40;;;;;;;29.83;25.90;101166.63;5033291;28;20496;-69
2021/07/12 10:18:26;;;;;;;4.15;3.28;;;;;;;30.26;25.59;101154.22;5013385;28;20635;-69
2021/07/12 10:21:01;;;;;;;4.07;3.78;;;;;;;30.25;25.78;101157.97;5031007;28;20677;-70
2021/07/12 10:23:26;;;;;;;3.63;3.20;;;;;;;30.10;25.73;101162.50;5028123;28;20548;-70
2021/07/12 10:26:09;;;;;;;4.85;4.35;;;;;;;28.83;27.83;101162.03;5030814;28;20048;-70
2021/07/12 10:28:58;;;;;;;;;;;;;;;;;;;;;
2021/07/12 10:31:27;;;;;;;5.03;4.47;;;;;;;29.36;26.92;101163.09;5027048;28;20123;-69
2021/07/12 10:33:55;;;;;;;4.85;4.38;;;;;;;29.49;27.49;101157.94;5029571;28;20053;-70
2021/07/12 10:36:40;;;;;;;4.97;4.35;;;;;;;28.75;28.80;101163.75;5029565;28;20152;-70
2021/07/12 10:39:08;;;;;;;4.38;3.97;;;;;;;29.26;29.31;101167.84;5032063;28;20064;-70
2021/07/12 10:41:47;;;;;;;5.28;4.78;;;;;;;29.31;28.07;101165.50;5029778;28;20120;-70
2021/07/12 10:44:16;;;;;;;6.50;4.18;;;;;;;29.27;28.93;101161.47;5011712;28;20120;-70
2021/07/12 10:46:52;;;;;;;5.68;5.07;;;;;;;29.44;27.95;101154.97;5030114;28;20033;-70
2021/07/12 10:49:32;;;;;;;4.97;4.57;;;;;;;29.74;28.98;101155.06;5020939;28;20068;-70
2021/07/12 10:52:04;;;;;;;6.43;4.90;;;;;;;29.50;28.00;101154.22;5030333;28;20079;-70
2021/07/12 10:55:05;;;;;;;4.88;4.47;;;;;;;29.29;27.57;101167.50;5032808;28;20043;-70
2021/07/12 10:57:41;;;;;;;4.55;4.25;;;;;;;29.51;27.69;101166.69;5017353;28;20521;-70
2021/07/12 11:00:14;;;;;;;4.80;4.35;;;;;;;28.93;28.89;101162.66;5033492;28;20049;-69
2021/07/12 11:02:42;;;;;;;5.05;3.80;;;;;;;28.49;29.48;101160.47;5033365;28;20088;-69
2021/07/12 11:05:15;;;;;;;4.72;4.18;;;;;;;28.19;29.65;101165.59;5032398;28;20052;-70
2021/07/12 11:07:49;;;;;;;4.22;3.83;;;;;;;28.16;29.58;101165.91;5033867;28;20161;-69
2021/07/12 11:10:42;;;;;;;4.95;4.55;;;;;;;28.17;28.86;101162.22;5033582;28;20041;-69
2021/07/12 11:13:16;;;;;;;4.47;4.18;;;;;;;28.90;27.92;101144.16;5036109;28;20034;-70
2021/07/12 11:15:46;;;;;;;4.57;4.28;;;;;;;29.22;28.05;101142.34;5019722;28;20501;-70
2021/07/12 11:18:28;;;;;;;4.28;3.80;;;;;;;28.75;28.80;101138.72;5024154;28;20120;-68
2021/07/12 11:21:15;;;;;;;5.55;3.92;;;;;;;28.61;29.15;101136.72;5033986;28;20460;-70
2021/07/12 11:23:44;;;;;;;4.82;3.88;;;;;;;28.52;28.58;101135.91;5035219;28;20040;-69
2021/07/12 11:26:37;;;;;;;;;;;;;;;;;;;;;
2021/07/12 11:29:21;;;;;;;5.40;4.78;;;;;;;30.02;25.97;101125.69;5014112;28;20032;-70
2021/07/12 11:32:07;;;;;;;4.18;3.85;;;;;;;29.03;27.63;101124.75;5035468;28;20179;-70
2021/07/12 11:34:37;;;;;;;7.45;4.28;;;;;;;28.00;29.29;101126.44;5035141;28;20143;-69
2021/07/12 11:37:14;;;;;;;11.18;4.28;;;;;;;27.39;30.80;101130.50;5018381;28;20067;-69